sensor_id;sensor_type;location;lat;lon;timestamp;P1;durP1;ratioP1;P2;durP2;ratioP2
11338;SDS011;5724;42.684;23.252;2022-11-20T00:00:48;1.38;;;1.27;;
11338;SDS011;5724;42.684;23.252;2022-11-20T00:03:14;3.00;;;1.00;;
11338;SDS011;5724;42.684;23.252;2022-11-20T00:05:40;4.50;;;1.40;;
11338;SDS011;5724;42.684;23.252;2022-11-20T00:08:05;3.00;;;1.27;;
11338;SDS011;5724;42.684;23.252;2022-11-20T00:10:31;3.45;;;1.05;;
11338;SDS011;5724;42.684;23.252;2022-11-20T00:13:00;2.95;;;0.98;;
11338;SDS011;5724;42.684;23.252;2022-11-20T00:15:25;2.63;;;1.13;;
11338;SDS011;5724;42.684;23.252;2022-11-20T00:17:51;1.92;;;1.20;;
11338;SDS011;5724;42.684;23.252;2022-11-20T00:20:16;1.85;;;1.10;;
11338;SDS011;5724;42.684;23.252;2022-11-20T00:22:42;3.35;;;1.35;;
11338;SDS011;5724;42.684;23.252;2022-11-20T00:25:07;4.68;;;1.42;;
11338;SDS011;5724;42.684;23.252;2022-11-20T00:27:33;1.33;;;1.10;;
11338;SDS011;5724;42.684;23.252;2022-11-20T00:29:58;2.47;;;1.13;;
11338;SDS011;5724;42.684;23.252;2022-11-20T00:32:24;4.40;;;1.30;;
11338;SDS011;5724;42.684;23.252;2022-11-20T00:34:49;2.72;;;1.40;;
11338;SDS011;5724;42.684;23.252;2022-11-20T00:37:15;1.95;;;1.20;;
11338;SDS011;5724;42.684;23.252;2022-11-20T00:39:40;3.53;;;1.60;;
11338;SDS011;5724;42.684;23.252;2022-11-20T00:42:06;3.53;;;0.93;;
11338;SDS011;5724;42.684;23.252;2022-11-20T00:44:31;1.60;;;1.10;;
11338;SDS011;5724;42.684;23.252;2022-11-20T00:46:56;2.15;;;1.30;;
11338;SDS011;5724;42.684;23.252;2022-11-20T00:49:22;0.93;;;0.90;;
11338;SDS011;5724;42.684;23.252;2022-11-20T00:51:47;2.20;;;1.23;;
11338;SDS011;5724;42.684;23.252;2022-11-20T00:54:13;3.03;;;1.20;;
11338;SDS011;5724;42.684;23.252;2022-11-20T00:56:38;1.48;;;1.30;;
11338;SDS011;5724;42.684;23.252;2022-11-20T00:59:04;1.42;;;1.33;;
11338;SDS011;5724;42.684;23.252;2022-11-20T01:01:29;4.43;;;1.05;;
11338;SDS011;5724;42.684;23.252;2022-11-20T01:03:56;2.78;;;1.30;;
11338;SDS011;5724;42.684;23.252;2022-11-20T01:08:56;1.95;;;1.70;;
11338;SDS011;5724;42.684;23.252;2022-11-20T01:11:24;1.33;;;1.20;;
11338;SDS011;5724;42.684;23.252;2022-11-20T01:13:51;3.58;;;1.15;;
11338;SDS011;5724;42.684;23.252;2022-11-20T01:16:25;1.25;;;1.15;;
11338;SDS011;5724;42.684;23.252;2022-11-20T01:18:57;1.83;;;1.38;;
11338;SDS011;5724;42.684;23.252;2022-11-20T01:21:28;2.10;;;1.10;;
11338;SDS011;5724;42.684;23.252;2022-11-20T01:23:58;2.63;;;1.05;;
11338;SDS011;5724;42.684;23.252;2022-11-20T01:26:25;4.68;;;1.30;;
11338;SDS011;5724;42.684;23.252;2022-11-20T01:28:52;3.17;;;1.45;;
11338;SDS011;5724;42.684;23.252;2022-11-20T01:31:25;2.88;;;1.15;;
11338;SDS011;5724;42.684;23.252;2022-11-20T01:33:57;2.88;;;1.00;;
11338;SDS011;5724;42.684;23.252;2022-11-20T01:36:24;1.00;;;0.80;;
11338;SDS011;5724;42.684;23.252;2022-11-20T01:38:55;1.58;;;1.17;;
11338;SDS011;5724;42.684;23.252;2022-11-20T01:41:22;1.40;;;1.00;;
11338;SDS011;5724;42.684;23.252;2022-11-20T01:44:07;2.67;;;1.25;;
11338;SDS011;5724;42.684;23.252;2022-11-20T01:46:37;1.20;;;1.10;;
11338;SDS011;5724;42.684;23.252;2022-11-20T01:49:14;3.75;;;1.00;;
11338;SDS011;5724;42.684;23.252;2022-11-20T01:52:01;1.27;;;1.20;;
11338;SDS011;5724;42.684;23.252;2022-11-20T01:54:36;1.23;;;0.93;;
11338;SDS011;5724;42.684;23.252;2022-11-20T01:57:07;2.83;;;1.02;;
11338;SDS011;5724;42.684;23.252;2022-11-20T01:59:38;1.70;;;1.10;;
11338;SDS011;5724;42.684;23.252;2022-11-20T02:02:09;1.67;;;0.90;;
11338;SDS011;5724;42.684;23.252;2022-11-20T02:04:34;2.25;;;1.08;;
11338;SDS011;5724;42.684;23.252;2022-11-20T02:07:00;3.08;;;1.10;;
11338;SDS011;5724;42.684;23.252;2022-11-20T02:09:28;1.48;;;1.10;;
11338;SDS011;5724;42.684;23.252;2022-11-20T02:11:54;1.45;;;1.13;;
11338;SDS011;5724;42.684;23.252;2022-11-20T02:14:21;2.67;;;1.00;;
11338;SDS011;5724;42.684;23.252;2022-11-20T02:16:48;1.65;;;1.10;;
11338;SDS011;5724;42.684;23.252;2022-11-20T02:19:27;1.00;;;0.82;;
11338;SDS011;5724;42.684;23.252;2022-11-20T02:24:25;0.98;;;0.98;;
11338;SDS011;5724;42.684;23.252;2022-11-20T02:26:51;1.27;;;0.80;;
11338;SDS011;5724;42.684;23.252;2022-11-20T02:29:24;2.83;;;1.15;;
11338;SDS011;5724;42.684;23.252;2022-11-20T02:31:55;2.45;;;1.20;;
11338;SDS011;5724;42.684;23.252;2022-11-20T02:34:24;3.92;;;1.13;;
11338;SDS011;5724;42.684;23.252;2022-11-20T02:36:49;2.00;;;1.10;;
11338;SDS011;5724;42.684;23.252;2022-11-20T02:39:17;2.92;;;1.40;;
11338;SDS011;5724;42.684;23.252;2022-11-20T02:41:45;1.40;;;1.00;;
11338;SDS011;5724;42.684;23.252;2022-11-20T02:44:11;1.35;;;0.95;;
11338;SDS011;5724;42.684;23.252;2022-11-20T02:46:37;3.42;;;1.10;;
11338;SDS011;5724;42.684;23.252;2022-11-20T02:49:03;4.22;;;1.42;;
11338;SDS011;5724;42.684;23.252;2022-11-20T02:51:29;1.92;;;1.40;;
11338;SDS011;5724;42.684;23.252;2022-11-20T02:53:55;2.85;;;1.60;;
11338;SDS011;5724;42.684;23.252;2022-11-20T02:56:20;5.97;;;1.48;;
11338;SDS011;5724;42.684;23.252;2022-11-20T02:58:46;2.30;;;1.42;;
11338;SDS011;5724;42.684;23.252;2022-11-20T03:01:12;3.15;;;1.50;;
11338;SDS011;5724;42.684;23.252;2022-11-20T03:03:37;5.18;;;1.80;;
11338;SDS011;5724;42.684;23.252;2022-11-20T03:06:03;2.83;;;1.25;;
11338;SDS011;5724;42.684;23.252;2022-11-20T03:08:29;2.30;;;1.30;;
11338;SDS011;5724;42.684;23.252;2022-11-20T03:10:54;3.90;;;1.58;;
11338;SDS011;5724;42.684;23.252;2022-11-20T03:13:20;4.72;;;1.58;;
11338;SDS011;5724;42.684;23.252;2022-11-20T03:15:45;2.83;;;1.75;;
11338;SDS011;5724;42.684;23.252;2022-11-20T03:18:10;4.40;;;1.75;;
11338;SDS011;5724;42.684;23.252;2022-11-20T03:20:36;2.78;;;1.38;;
11338;SDS011;5724;42.684;23.252;2022-11-20T03:23:01;3.92;;;1.52;;
11338;SDS011;5724;42.684;23.252;2022-11-20T03:25:27;1.95;;;1.30;;
11338;SDS011;5724;42.684;23.252;2022-11-20T03:27:53;4.18;;;1.33;;
11338;SDS011;5724;42.684;23.252;2022-11-20T03:30:19;2.03;;;1.23;;
11338;SDS011;5724;42.684;23.252;2022-11-20T03:32:45;2.90;;;1.30;;
11338;SDS011;5724;42.684;23.252;2022-11-20T03:35:10;3.03;;;1.48;;
11338;SDS011;5724;42.684;23.252;2022-11-20T03:37:35;1.95;;;1.40;;
11338;SDS011;5724;42.684;23.252;2022-11-20T03:40:01;1.75;;;1.25;;
11338;SDS011;5724;42.684;23.252;2022-11-20T03:42:26;2.00;;;1.48;;
11338;SDS011;5724;42.684;23.252;2022-11-20T03:45:10;1.23;;;1.13;;
11338;SDS011;5724;42.684;23.252;2022-11-20T03:47:36;2.60;;;1.48;;
11338;SDS011;5724;42.684;23.252;2022-11-20T03:50:01;3.33;;;1.17;;
11338;SDS011;5724;42.684;23.252;2022-11-20T03:52:27;2.90;;;1.20;;
11338;SDS011;5724;42.684;23.252;2022-11-20T03:54:52;1.58;;;1.08;;
11338;SDS011;5724;42.684;23.252;2022-11-20T03:57:18;3.50;;;1.40;;
11338;SDS011;5724;42.684;23.252;2022-11-20T03:59:43;0.80;;;0.80;;
11338;SDS011;5724;42.684;23.252;2022-11-20T04:02:09;3.80;;;1.45;;
11338;SDS011;5724;42.684;23.252;2022-11-20T04:04:34;2.63;;;1.48;;
11338;SDS011;5724;42.684;23.252;2022-11-20T04:07:00;2.35;;;1.35;;
11338;SDS011;5724;42.684;23.252;2022-11-20T04:09:25;3.05;;;1.38;;
11338;SDS011;5724;42.684;23.252;2022-11-20T04:11:50;2.47;;;1.52;;
11338;SDS011;5724;42.684;23.252;2022-11-20T04:14:16;4.40;;;1.25;;
11338;SDS011;5724;42.684;23.252;2022-11-20T04:16:42;2.70;;;1.20;;
11338;SDS011;5724;42.684;23.252;2022-11-20T04:19:14;2.30;;;1.05;;
11338;SDS011;5724;42.684;23.252;2022-11-20T04:21:41;3.85;;;1.10;;
11338;SDS011;5724;42.684;23.252;2022-11-20T04:24:07;1.90;;;1.05;;
11338;SDS011;5724;42.684;23.252;2022-11-20T04:26:33;2.25;;;1.15;;
11338;SDS011;5724;42.684;23.252;2022-11-20T04:28:59;2.05;;;1.40;;
11338;SDS011;5724;42.684;23.252;2022-11-20T04:31:27;1.15;;;0.90;;
11338;SDS011;5724;42.684;23.252;2022-11-20T04:33:54;0.90;;;0.73;;
11338;SDS011;5724;42.684;23.252;2022-11-20T04:36:22;3.15;;;1.27;;
11338;SDS011;5724;42.684;23.252;2022-11-20T04:38:56;0.90;;;0.85;;
11338;SDS011;5724;42.684;23.252;2022-11-20T04:41:23;5.72;;;1.15;;
11338;SDS011;5724;42.684;23.252;2022-11-20T04:43:54;2.05;;;0.80;;
11338;SDS011;5724;42.684;23.252;2022-11-20T04:46:25;3.63;;;1.08;;
11338;SDS011;5724;42.684;23.252;2022-11-20T04:48:51;1.30;;;1.10;;
11338;SDS011;5724;42.684;23.252;2022-11-20T04:51:17;3.75;;;1.42;;
11338;SDS011;5724;42.684;23.252;2022-11-20T04:53:42;3.15;;;0.98;;
11338;SDS011;5724;42.684;23.252;2022-11-20T04:56:08;1.33;;;1.02;;
11338;SDS011;5724;42.684;23.252;2022-11-20T04:58:36;2.38;;;0.90;;
11338;SDS011;5724;42.684;23.252;2022-11-20T05:01:06;2.40;;;1.08;;
11338;SDS011;5724;42.684;23.252;2022-11-20T05:03:34;1.95;;;1.05;;
11338;SDS011;5724;42.684;23.252;2022-11-20T05:06:00;1.80;;;0.70;;
11338;SDS011;5724;42.684;23.252;2022-11-20T05:08:26;1.60;;;0.70;;
11338;SDS011;5724;42.684;23.252;2022-11-20T05:10:52;0.77;;;0.77;;
11338;SDS011;5724;42.684;23.252;2022-11-20T05:13:17;1.25;;;1.20;;
11338;SDS011;5724;42.684;23.252;2022-11-20T05:15:43;2.38;;;1.65;;
11338;SDS011;5724;42.684;23.252;2022-11-20T05:18:08;1.50;;;0.93;;
11338;SDS011;5724;42.684;23.252;2022-11-20T05:20:34;2.00;;;1.08;;
11338;SDS011;5724;42.684;23.252;2022-11-20T05:23:01;1.35;;;1.10;;
11338;SDS011;5724;42.684;23.252;2022-11-20T05:25:27;2.10;;;1.00;;
11338;SDS011;5724;42.684;23.252;2022-11-20T05:27:53;4.15;;;1.45;;
11338;SDS011;5724;42.684;23.252;2022-11-20T05:30:18;1.55;;;1.02;;
11338;SDS011;5724;42.684;23.252;2022-11-20T05:32:43;1.00;;;1.00;;
11338;SDS011;5724;42.684;23.252;2022-11-20T05:35:09;1.50;;;1.00;;
11338;SDS011;5724;42.684;23.252;2022-11-20T05:37:34;2.25;;;1.20;;
11338;SDS011;5724;42.684;23.252;2022-11-20T05:40:00;1.20;;;1.00;;
11338;SDS011;5724;42.684;23.252;2022-11-20T05:42:25;1.77;;;0.90;;
11338;SDS011;5724;42.684;23.252;2022-11-20T05:45:00;1.33;;;1.10;;
11338;SDS011;5724;42.684;23.252;2022-11-20T05:47:31;3.70;;;1.35;;
11338;SDS011;5724;42.684;23.252;2022-11-20T05:49:57;2.55;;;1.10;;
11338;SDS011;5724;42.684;23.252;2022-11-20T05:52:23;1.77;;;0.98;;
11338;SDS011;5724;42.684;23.252;2022-11-20T05:54:48;1.00;;;1.00;;
11338;SDS011;5724;42.684;23.252;2022-11-20T05:57:14;2.88;;;1.02;;
11338;SDS011;5724;42.684;23.252;2022-11-20T05:59:39;2.47;;;1.00;;
11338;SDS011;5724;42.684;23.252;2022-11-20T06:02:05;1.70;;;1.20;;
11338;SDS011;5724;42.684;23.252;2022-11-20T06:04:30;1.58;;;1.48;;
11338;SDS011;5724;42.684;23.252;2022-11-20T06:06:56;3.35;;;1.05;;
11338;SDS011;5724;42.684;23.252;2022-11-20T06:09:21;6.22;;;1.00;;
11338;SDS011;5724;42.684;23.252;2022-11-20T06:11:46;2.03;;;1.40;;
11338;SDS011;5724;42.684;23.252;2022-11-20T06:14:12;2.22;;;1.23;;
11338;SDS011;5724;42.684;23.252;2022-11-20T06:16:37;1.48;;;1.35;;
11338;SDS011;5724;42.684;23.252;2022-11-20T06:19:03;3.45;;;1.15;;
11338;SDS011;5724;42.684;23.252;2022-11-20T06:21:28;5.03;;;1.20;;
11338;SDS011;5724;42.684;23.252;2022-11-20T06:23:53;2.95;;;0.88;;
11338;SDS011;5724;42.684;23.252;2022-11-20T06:26:20;1.70;;;1.50;;
11338;SDS011;5724;42.684;23.252;2022-11-20T06:28:47;2.30;;;1.30;;
11338;SDS011;5724;42.684;23.252;2022-11-20T06:31:13;3.25;;;1.30;;
11338;SDS011;5724;42.684;23.252;2022-11-20T06:33:40;6.43;;;1.42;;
11338;SDS011;5724;42.684;23.252;2022-11-20T06:36:07;1.52;;;1.00;;
11338;SDS011;5724;42.684;23.252;2022-11-20T06:38:32;1.92;;;1.02;;
11338;SDS011;5724;42.684;23.252;2022-11-20T06:40:58;2.67;;;1.60;;
11338;SDS011;5724;42.684;23.252;2022-11-20T06:43:23;3.83;;;0.95;;
11338;SDS011;5724;42.684;23.252;2022-11-20T06:45:52;1.88;;;1.00;;
11338;SDS011;5724;42.684;23.252;2022-11-20T06:48:19;1.77;;;1.08;;
11338;SDS011;5724;42.684;23.252;2022-11-20T06:50:44;1.83;;;0.85;;
11338;SDS011;5724;42.684;23.252;2022-11-20T06:53:09;1.00;;;0.77;;
11338;SDS011;5724;42.684;23.252;2022-11-20T06:55:35;3.63;;;1.13;;
11338;SDS011;5724;42.684;23.252;2022-11-20T06:58:00;2.97;;;1.13;;
11338;SDS011;5724;42.684;23.252;2022-11-20T07:00:26;1.38;;;1.27;;
11338;SDS011;5724;42.684;23.252;2022-11-20T07:02:51;1.92;;;1.33;;
11338;SDS011;5724;42.684;23.252;2022-11-20T07:05:17;2.28;;;1.20;;
11338;SDS011;5724;42.684;23.252;2022-11-20T07:07:42;3.40;;;1.10;;
11338;SDS011;5724;42.684;23.252;2022-11-20T07:10:08;1.25;;;1.10;;
11338;SDS011;5724;42.684;23.252;2022-11-20T07:12:34;3.20;;;1.20;;
11338;SDS011;5724;42.684;23.252;2022-11-20T07:14:59;2.70;;;1.20;;
11338;SDS011;5724;42.684;23.252;2022-11-20T07:17:25;3.15;;;1.25;;
11338;SDS011;5724;42.684;23.252;2022-11-20T07:19:50;2.55;;;1.20;;
11338;SDS011;5724;42.684;23.252;2022-11-20T07:22:16;1.20;;;1.10;;
11338;SDS011;5724;42.684;23.252;2022-11-20T07:24:41;3.30;;;1.20;;
11338;SDS011;5724;42.684;23.252;2022-11-20T07:27:07;5.60;;;1.77;;
11338;SDS011;5724;42.684;23.252;2022-11-20T07:29:32;3.05;;;1.30;;
11338;SDS011;5724;42.684;23.252;2022-11-20T07:31:57;2.08;;;1.42;;
11338;SDS011;5724;42.684;23.252;2022-11-20T07:34:23;2.75;;;1.30;;
11338;SDS011;5724;42.684;23.252;2022-11-20T07:36:48;2.40;;;1.33;;
11338;SDS011;5724;42.684;23.252;2022-11-20T07:39:14;2.63;;;1.38;;
11338;SDS011;5724;42.684;23.252;2022-11-20T07:41:39;6.25;;;1.55;;
11338;SDS011;5724;42.684;23.252;2022-11-20T07:44:04;3.38;;;1.33;;
11338;SDS011;5724;42.684;23.252;2022-11-20T07:46:30;2.65;;;1.58;;
11338;SDS011;5724;42.684;23.252;2022-11-20T07:48:55;3.25;;;1.40;;
11338;SDS011;5724;42.684;23.252;2022-11-20T07:51:21;5.20;;;1.90;;
11338;SDS011;5724;42.684;23.252;2022-11-20T07:53:47;6.10;;;1.80;;
11338;SDS011;5724;42.684;23.252;2022-11-20T07:56:12;4.85;;;1.52;;
11338;SDS011;5724;42.684;23.252;2022-11-20T07:58:39;3.38;;;1.73;;
11338;SDS011;5724;42.684;23.252;2022-11-20T08:01:05;5.13;;;1.58;;
11338;SDS011;5724;42.684;23.252;2022-11-20T08:03:32;4.70;;;1.42;;
11338;SDS011;5724;42.684;23.252;2022-11-20T08:06:02;5.93;;;1.80;;
11338;SDS011;5724;42.684;23.252;2022-11-20T08:08:28;2.28;;;1.50;;
11338;SDS011;5724;42.684;23.252;2022-11-20T08:10:56;2.60;;;1.40;;
11338;SDS011;5724;42.684;23.252;2022-11-20T08:13:42;3.80;;;1.75;;
11338;SDS011;5724;42.684;23.252;2022-11-20T08:16:26;2.80;;;1.45;;
11338;SDS011;5724;42.684;23.252;2022-11-20T08:18:52;5.90;;;1.67;;
11338;SDS011;5724;42.684;23.252;2022-11-20T08:21:17;7.55;;;1.60;;
11338;SDS011;5724;42.684;23.252;2022-11-20T08:23:42;4.50;;;1.60;;
11338;SDS011;5724;42.684;23.252;2022-11-20T08:26:08;6.65;;;1.80;;
11338;SDS011;5724;42.684;23.252;2022-11-20T08:28:33;3.05;;;1.48;;
11338;SDS011;5724;42.684;23.252;2022-11-20T08:30:59;2.35;;;1.58;;
11338;SDS011;5724;42.684;23.252;2022-11-20T08:33:25;4.93;;;1.70;;
11338;SDS011;5724;42.684;23.252;2022-11-20T08:35:51;3.10;;;1.70;;
11338;SDS011;5724;42.684;23.252;2022-11-20T08:38:17;1.92;;;1.27;;
11338;SDS011;5724;42.684;23.252;2022-11-20T08:40:42;5.57;;;2.25;;
11338;SDS011;5724;42.684;23.252;2022-11-20T08:43:28;12.95;;;2.72;;
11338;SDS011;5724;42.684;23.252;2022-11-20T08:45:55;4.97;;;1.73;;
11338;SDS011;5724;42.684;23.252;2022-11-20T08:48:21;3.35;;;1.58;;
11338;SDS011;5724;42.684;23.252;2022-11-20T08:50:47;7.18;;;2.50;;
11338;SDS011;5724;42.684;23.252;2022-11-20T08:53:12;8.55;;;2.40;;
11338;SDS011;5724;42.684;23.252;2022-11-20T08:55:37;5.45;;;2.10;;
11338;SDS011;5724;42.684;23.252;2022-11-20T08:58:04;5.97;;;2.33;;
11338;SDS011;5724;42.684;23.252;2022-11-20T09:00:30;6.93;;;2.58;;
11338;SDS011;5724;42.684;23.252;2022-11-20T09:02:57;5.57;;;2.92;;
11338;SDS011;5724;42.684;23.252;2022-11-20T09:05:23;7.88;;;3.20;;
11338;SDS011;5724;42.684;23.252;2022-11-20T09:07:49;7.03;;;3.25;;
11338;SDS011;5724;42.684;23.252;2022-11-20T09:10:14;6.47;;;2.70;;
11338;SDS011;5724;42.684;23.252;2022-11-20T09:12:40;4.50;;;2.40;;
11338;SDS011;5724;42.684;23.252;2022-11-20T09:15:05;4.70;;;3.17;;
11338;SDS011;5724;42.684;23.252;2022-11-20T09:17:31;5.63;;;3.08;;
11338;SDS011;5724;42.684;23.252;2022-11-20T09:19:56;6.03;;;2.70;;
11338;SDS011;5724;42.684;23.252;2022-11-20T09:22:22;5.38;;;2.42;;
11338;SDS011;5724;42.684;23.252;2022-11-20T09:24:47;4.80;;;2.15;;
11338;SDS011;5724;42.684;23.252;2022-11-20T09:27:13;3.20;;;2.42;;
11338;SDS011;5724;42.684;23.252;2022-11-20T09:29:38;5.97;;;2.03;;
11338;SDS011;5724;42.684;23.252;2022-11-20T09:32:04;2.60;;;2.00;;
11338;SDS011;5724;42.684;23.252;2022-11-20T09:34:29;1.77;;;1.60;;
11338;SDS011;5724;42.684;23.252;2022-11-20T09:36:55;5.85;;;2.58;;
11338;SDS011;5724;42.684;23.252;2022-11-20T09:39:20;4.47;;;2.20;;
11338;SDS011;5724;42.684;23.252;2022-11-20T09:42:07;4.13;;;1.95;;
11338;SDS011;5724;42.684;23.252;2022-11-20T09:55:20;5.18;;;1.73;;
11338;SDS011;5724;42.684;23.252;2022-11-20T09:57:47;2.63;;;2.22;;
11338;SDS011;5724;42.684;23.252;2022-11-20T10:00:15;3.28;;;2.22;;
11338;SDS011;5724;42.684;23.252;2022-11-20T10:02:51;4.07;;;2.08;;
11338;SDS011;5724;42.684;23.252;2022-11-20T10:11:14;7.38;;;2.25;;
11338;SDS011;5724;42.684;23.252;2022-11-20T10:30:25;4.43;;;2.65;;
11338;SDS011;5724;42.684;23.252;2022-11-20T10:32:52;11.85;;;3.53;;
11338;SDS011;5724;42.684;23.252;2022-11-20T10:38:07;5.65;;;2.80;;
11338;SDS011;5724;42.684;23.252;2022-11-20T10:40:46;6.55;;;3.00;;
11338;SDS011;5724;42.684;23.252;2022-11-20T10:43:28;8.57;;;2.80;;
11338;SDS011;5724;42.684;23.252;2022-11-20T10:46:12;6.25;;;3.47;;
11338;SDS011;5724;42.684;23.252;2022-11-20T10:49:02;9.90;;;3.38;;
11338;SDS011;5724;42.684;23.252;2022-11-20T11:00:19;5.35;;;1.88;;
11338;SDS011;5724;42.684;23.252;2022-11-20T11:02:47;2.40;;;1.40;;
11338;SDS011;5724;42.684;23.252;2022-11-20T11:05:27;4.80;;;1.52;;
11338;SDS011;5724;42.684;23.252;2022-11-20T11:07:58;2.63;;;1.60;;
11338;SDS011;5724;42.684;23.252;2022-11-20T11:15:50;1.63;;;1.25;;
11338;SDS011;5724;42.684;23.252;2022-11-20T11:18:23;4.72;;;1.38;;
11338;SDS011;5724;42.684;23.252;2022-11-20T11:20:52;2.35;;;1.10;;
11338;SDS011;5724;42.684;23.252;2022-11-20T11:23:29;2.83;;;0.90;;
11338;SDS011;5724;42.684;23.252;2022-11-20T11:26:17;3.40;;;0.98;;
11338;SDS011;5724;42.684;23.252;2022-11-20T11:28:57;2.42;;;1.00;;
11338;SDS011;5724;42.684;23.252;2022-11-20T11:31:30;3.17;;;1.30;;
11338;SDS011;5724;42.684;23.252;2022-11-20T11:36:58;1.30;;;1.20;;
11338;SDS011;5724;42.684;23.252;2022-11-20T11:39:25;2.40;;;1.77;;
11338;SDS011;5724;42.684;23.252;2022-11-20T11:41:53;1.35;;;0.80;;
11338;SDS011;5724;42.684;23.252;2022-11-20T11:44:20;2.03;;;0.98;;
11338;SDS011;5724;42.684;23.252;2022-11-20T11:47:11;2.38;;;1.20;;
11338;SDS011;5724;42.684;23.252;2022-11-20T11:49:45;3.38;;;0.90;;
11338;SDS011;5724;42.684;23.252;2022-11-20T11:52:12;1.60;;;1.30;;
11338;SDS011;5724;42.684;23.252;2022-11-20T11:54:49;1.95;;;0.70;;
11338;SDS011;5724;42.684;23.252;2022-11-20T12:02:34;1.38;;;1.23;;
11338;SDS011;5724;42.684;23.252;2022-11-20T12:05:22;3.15;;;1.40;;
11338;SDS011;5724;42.684;23.252;2022-11-20T12:08:05;2.63;;;1.23;;
11338;SDS011;5724;42.684;23.252;2022-11-20T12:16:02;2.38;;;1.40;;
11338;SDS011;5724;42.684;23.252;2022-11-20T12:18:29;2.20;;;1.30;;
11338;SDS011;5724;42.684;23.252;2022-11-20T12:26:58;2.13;;;1.15;;
11338;SDS011;5724;42.684;23.252;2022-11-20T12:48:10;3.17;;;1.20;;
11338;SDS011;5724;42.684;23.252;2022-11-20T12:51:13;5.07;;;1.48;;
11338;SDS011;5724;42.684;23.252;2022-11-20T12:56:49;2.88;;;1.00;;
11338;SDS011;5724;42.684;23.252;2022-11-20T13:02:26;2.15;;;1.13;;
11338;SDS011;5724;42.684;23.252;2022-11-20T13:07:36;1.70;;;1.60;;
11338;SDS011;5724;42.684;23.252;2022-11-20T13:10:02;2.65;;;1.10;;
11338;SDS011;5724;42.684;23.252;2022-11-20T13:18:10;4.70;;;4.07;;
11338;SDS011;5724;42.684;23.252;2022-11-20T13:20:41;2.53;;;2.30;;
11338;SDS011;5724;42.684;23.252;2022-11-20T13:23:10;3.08;;;2.88;;
11338;SDS011;5724;42.684;23.252;2022-11-20T13:25:39;4.60;;;4.25;;
11338;SDS011;5724;42.684;23.252;2022-11-20T13:30:37;3.22;;;2.00;;
11338;SDS011;5724;42.684;23.252;2022-11-20T13:33:31;4.57;;;1.83;;
11338;SDS011;5724;42.684;23.252;2022-11-20T13:38:39;2.10;;;1.95;;
11338;SDS011;5724;42.684;23.252;2022-11-20T13:41:09;2.95;;;1.73;;
11338;SDS011;5724;42.684;23.252;2022-11-20T13:43:54;1.67;;;1.58;;
11338;SDS011;5724;42.684;23.252;2022-11-20T13:46:43;2.70;;;1.83;;
11338;SDS011;5724;42.684;23.252;2022-11-20T13:57:39;6.13;;;2.60;;
11338;SDS011;5724;42.684;23.252;2022-11-20T14:00:25;1.73;;;1.63;;
11338;SDS011;5724;42.684;23.252;2022-11-20T14:05:36;2.75;;;2.15;;
11338;SDS011;5724;42.684;23.252;2022-11-20T14:08:05;1.90;;;1.80;;
11338;SDS011;5724;42.684;23.252;2022-11-20T14:10:36;1.60;;;1.50;;
11338;SDS011;5724;42.684;23.252;2022-11-20T14:13:12;2.80;;;2.60;;
11338;SDS011;5724;42.684;23.252;2022-11-20T14:15:43;2.00;;;1.90;;
11338;SDS011;5724;42.684;23.252;2022-11-20T14:18:18;2.78;;;2.40;;
11338;SDS011;5724;42.684;23.252;2022-11-20T14:20:46;2.97;;;2.20;;
11338;SDS011;5724;42.684;23.252;2022-11-20T14:23:12;2.22;;;2.00;;
11338;SDS011;5724;42.684;23.252;2022-11-20T14:25:47;2.50;;;2.20;;
11338;SDS011;5724;42.684;23.252;2022-11-20T14:28:18;4.40;;;1.70;;
11338;SDS011;5724;42.684;23.252;2022-11-20T14:30:54;1.90;;;1.80;;
11338;SDS011;5724;42.684;23.252;2022-11-20T14:33:21;2.35;;;1.48;;
11338;SDS011;5724;42.684;23.252;2022-11-20T14:35:51;1.50;;;1.40;;
11338;SDS011;5724;42.684;23.252;2022-11-20T14:38:22;4.18;;;1.60;;
11338;SDS011;5724;42.684;23.252;2022-11-20T14:40:51;2.30;;;2.10;;
11338;SDS011;5724;42.684;23.252;2022-11-20T14:43:24;1.63;;;1.52;;
11338;SDS011;5724;42.684;23.252;2022-11-20T14:46:00;2.67;;;1.75;;
11338;SDS011;5724;42.684;23.252;2022-11-20T14:48:29;2.20;;;2.10;;
11338;SDS011;5724;42.684;23.252;2022-11-20T14:50:57;2.40;;;2.15;;
11338;SDS011;5724;42.684;23.252;2022-11-20T14:53:24;3.42;;;1.80;;
11338;SDS011;5724;42.684;23.252;2022-11-20T14:55:57;3.78;;;2.40;;
11338;SDS011;5724;42.684;23.252;2022-11-20T14:58:25;1.73;;;1.52;;
11338;SDS011;5724;42.684;23.252;2022-11-20T15:01:05;3.80;;;2.13;;
11338;SDS011;5724;42.684;23.252;2022-11-20T15:03:36;1.65;;;1.55;;
11338;SDS011;5724;42.684;23.252;2022-11-20T15:06:04;2.22;;;1.75;;
11338;SDS011;5724;42.684;23.252;2022-11-20T15:08:31;2.72;;;1.90;;
11338;SDS011;5724;42.684;23.252;2022-11-20T15:10:57;3.30;;;2.67;;
11338;SDS011;5724;42.684;23.252;2022-11-20T15:13:25;2.03;;;1.90;;
11338;SDS011;5724;42.684;23.252;2022-11-20T15:15:52;2.60;;;2.03;;
11338;SDS011;5724;42.684;23.252;2022-11-20T15:18:28;1.60;;;1.50;;
11338;SDS011;5724;42.684;23.252;2022-11-20T15:20:56;1.60;;;1.50;;
11338;SDS011;5724;42.684;23.252;2022-11-20T15:23:24;1.58;;;1.50;;
11338;SDS011;5724;42.684;23.252;2022-11-20T15:25:51;2.38;;;2.20;;
11338;SDS011;5724;42.684;23.252;2022-11-20T15:30:42;2.10;;;1.85;;
11338;SDS011;5724;42.684;23.252;2022-11-20T15:33:09;1.92;;;1.83;;
11338;SDS011;5724;42.684;23.252;2022-11-20T15:35:35;2.70;;;2.15;;
11338;SDS011;5724;42.684;23.252;2022-11-20T15:38:01;4.15;;;2.10;;
11338;SDS011;5724;42.684;23.252;2022-11-20T15:40:26;4.28;;;2.40;;
11338;SDS011;5724;42.684;23.252;2022-11-20T15:42:52;2.20;;;2.00;;
11338;SDS011;5724;42.684;23.252;2022-11-20T15:45:33;3.25;;;2.67;;
11338;SDS011;5724;42.684;23.252;2022-11-20T15:48:15;3.45;;;2.70;;
11338;SDS011;5724;42.684;23.252;2022-11-20T15:53:22;2.20;;;2.05;;
11338;SDS011;5724;42.684;23.252;2022-11-20T15:55:47;1.90;;;1.20;;
11338;SDS011;5724;42.684;23.252;2022-11-20T15:58:13;2.97;;;1.80;;
11338;SDS011;5724;42.684;23.252;2022-11-20T16:00:39;1.50;;;1.40;;
11338;SDS011;5724;42.684;23.252;2022-11-20T16:03:04;1.27;;;1.02;;
11338;SDS011;5724;42.684;23.252;2022-11-20T16:05:30;1.70;;;1.60;;
11338;SDS011;5724;42.684;23.252;2022-11-20T16:07:55;1.50;;;1.40;;
11338;SDS011;5724;42.684;23.252;2022-11-20T16:10:21;2.30;;;2.10;;
11338;SDS011;5724;42.684;23.252;2022-11-20T16:12:47;2.00;;;1.90;;
11338;SDS011;5724;42.684;23.252;2022-11-20T16:15:31;3.05;;;2.00;;
11338;SDS011;5724;42.684;23.252;2022-11-20T16:18:14;4.72;;;3.55;;
11338;SDS011;5724;42.684;23.252;2022-11-20T16:20:41;2.47;;;2.38;;
11338;SDS011;5724;42.684;23.252;2022-11-20T16:23:07;2.45;;;2.13;;
11338;SDS011;5724;42.684;23.252;2022-11-20T16:25:33;4.38;;;4.10;;
11338;SDS011;5724;42.684;23.252;2022-11-20T16:27:58;5.20;;;4.80;;
11338;SDS011;5724;42.684;23.252;2022-11-20T16:30:24;1.75;;;1.65;;
11338;SDS011;5724;42.684;23.252;2022-11-20T16:32:49;2.30;;;2.20;;
11338;SDS011;5724;42.684;23.252;2022-11-20T16:35:15;1.70;;;1.60;;
11338;SDS011;5724;42.684;23.252;2022-11-20T16:37:40;2.45;;;1.70;;
11338;SDS011;5724;42.684;23.252;2022-11-20T16:40:07;1.60;;;1.50;;
11338;SDS011;5724;42.684;23.252;2022-11-20T16:42:33;1.70;;;1.60;;
11338;SDS011;5724;42.684;23.252;2022-11-20T16:44:59;3.25;;;1.90;;
11338;SDS011;5724;42.684;23.252;2022-11-20T16:47:25;1.52;;;1.42;;
11338;SDS011;5724;42.684;23.252;2022-11-20T16:49:50;1.17;;;1.10;;
11338;SDS011;5724;42.684;23.252;2022-11-20T16:52:15;1.75;;;1.52;;
11338;SDS011;5724;42.684;23.252;2022-11-20T16:54:41;3.30;;;3.10;;
11338;SDS011;5724;42.684;23.252;2022-11-20T16:57:06;6.55;;;5.18;;
11338;SDS011;5724;42.684;23.252;2022-11-20T16:59:32;7.25;;;4.65;;
11338;SDS011;5724;42.684;23.252;2022-11-20T17:01:57;2.83;;;2.42;;
11338;SDS011;5724;42.684;23.252;2022-11-20T17:04:22;2.72;;;2.53;;